sensor_id;sensor_type;location;lat;lon;timestamp;P1;durP1;ratioP1;P2;durP2;ratioP2
3718;SDS011;1875;52.492;6.860;2022-08-19T00:00:34;1209.53;;;861.30;;
3718;SDS011;1875;52.492;6.860;2022-08-19T00:03:02;1708.13;;;486.30;;
3718;SDS011;1875;52.492;6.860;2022-08-19T00:05:30;1281.83;;;944.97;;
3718;SDS011;1875;52.492;6.860;2022-08-19T00:07:59;1387.40;;;985.77;;
3718;SDS011;1875;52.492;6.860;2022-08-19T00:10:27;1411.07;;;774.23;;
3718;SDS011;1875;52.492;6.860;2022-08-19T00:12:55;1711.37;;;265.63;;
3718;SDS011;1875;52.492;6.860;2022-08-19T00:15:22;1223.90;;;986.83;;
3718;SDS011;1875;52.492;6.860;2022-08-19T00:17:50;1478.73;;;775.23;;
3718;SDS011;1875;52.492;6.860;2022-08-19T00:20:18;1406.00;;;999.90;;
3718;SDS011;1875;52.492;6.860;2022-08-19T00:22:47;1261.47;;;999.90;;
3718;SDS011;1875;52.492;6.860;2022-08-19T00:25:16;1358.43;;;999.90;;
3718;SDS011;1875;52.492;6.860;2022-08-19T00:27:55;1240.77;;;999.90;;
3718;SDS011;1875;52.492;6.860;2022-08-19T00:30:23;1287.13;;;999.90;;
3718;SDS011;1875;52.492;6.860;2022-08-19T00:32:50;1347.60;;;999.90;;
3718;SDS011;1875;52.492;6.860;2022-08-19T00:35:20;1242.37;;;999.90;;
3718;SDS011;1875;52.492;6.860;2022-08-19T00:37:48;1459.30;;;999.90;;
3718;SDS011;1875;52.492;6.860;2022-08-19T00:40:17;1515.10;;;999.90;;
3718;SDS011;1875;52.492;6.860;2022-08-19T00:42:45;1423.57;;;999.90;;
3718;SDS011;1875;52.492;6.860;2022-08-19T00:45:14;1318.67;;;999.90;;
3718;SDS011;1875;52.492;6.860;2022-08-19T00:47:44;1601.53;;;997.93;;
3718;SDS011;1875;52.492;6.860;2022-08-19T00:50:13;1448.67;;;999.90;;
3718;SDS011;1875;52.492;6.860;2022-08-19T00:52:43;1460.27;;;999.90;;
3718;SDS011;1875;52.492;6.860;2022-08-19T00:55:15;1325.30;;;999.90;;
3718;SDS011;1875;52.492;6.860;2022-08-19T00:57:47;1327.33;;;999.90;;
3718;SDS011;1875;52.492;6.860;2022-08-19T01:00:18;1417.00;;;999.90;;
3718;SDS011;1875;52.492;6.860;2022-08-19T01:02:47;1389.60;;;999.90;;
3718;SDS011;1875;52.492;6.860;2022-08-19T01:05:16;1296.00;;;999.90;;
3718;SDS011;1875;52.492;6.860;2022-08-19T01:07:46;1643.33;;;999.90;;
3718;SDS011;1875;52.492;6.860;2022-08-19T01:10:15;1451.37;;;999.90;;
3718;SDS011;1875;52.492;6.860;2022-08-19T01:12:47;1401.53;;;999.90;;
3718;SDS011;1875;52.492;6.860;2022-08-19T01:15:16;1310.00;;;999.90;;
3718;SDS011;1875;52.492;6.860;2022-08-19T01:17:47;1358.07;;;999.90;;
3718;SDS011;1875;52.492;6.860;2022-08-19T01:20:17;1390.17;;;999.90;;
3718;SDS011;1875;52.492;6.860;2022-08-19T01:22:48;1384.27;;;999.90;;
3718;SDS011;1875;52.492;6.860;2022-08-19T01:25:19;1418.87;;;999.90;;
3718;SDS011;1875;52.492;6.860;2022-08-19T01:27:52;1405.17;;;999.90;;
3718;SDS011;1875;52.492;6.860;2022-08-19T01:30:20;1393.97;;;999.90;;
3718;SDS011;1875;52.492;6.860;2022-08-19T01:32:51;1604.83;;;999.90;;
3718;SDS011;1875;52.492;6.860;2022-08-19T01:35:20;1784.23;;;999.90;;
3718;SDS011;1875;52.492;6.860;2022-08-19T01:37:51;1373.73;;;999.90;;
3718;SDS011;1875;52.492;6.860;2022-08-19T01:40:21;1304.20;;;999.90;;
3718;SDS011;1875;52.492;6.860;2022-08-19T01:42:52;1443.27;;;999.90;;
3718;SDS011;1875;52.492;6.860;2022-08-19T01:45:21;1169.27;;;988.77;;
3718;SDS011;1875;52.492;6.860;2022-08-19T01:47:51;1408.13;;;999.90;;
3718;SDS011;1875;52.492;6.860;2022-08-19T01:50:28;1293.30;;;999.90;;
3718;SDS011;1875;52.492;6.860;2022-08-19T01:52:57;1309.63;;;999.90;;
3718;SDS011;1875;52.492;6.860;2022-08-19T01:55:32;1278.80;;;999.90;;
3718;SDS011;1875;52.492;6.860;2022-08-19T01:58:06;1415.33;;;999.90;;
3718;SDS011;1875;52.492;6.860;2022-08-19T02:00:35;1386.63;;;999.90;;
3718;SDS011;1875;52.492;6.860;2022-08-19T02:03:03;1351.13;;;999.90;;
3718;SDS011;1875;52.492;6.860;2022-08-19T02:05:32;1314.20;;;999.90;;
3718;SDS011;1875;52.492;6.860;2022-08-19T02:08:01;1372.70;;;999.90;;
3718;SDS011;1875;52.492;6.860;2022-08-19T02:10:29;1403.40;;;999.90;;
3718;SDS011;1875;52.492;6.860;2022-08-19T02:12:58;1361.83;;;999.90;;
3718;SDS011;1875;52.492;6.860;2022-08-19T02:15:25;1446.23;;;999.90;;
3718;SDS011;1875;52.492;6.860;2022-08-19T02:17:53;1400.40;;;999.90;;
3718;SDS011;1875;52.492;6.860;2022-08-19T02:20:20;1437.27;;;999.90;;
3718;SDS011;1875;52.492;6.860;2022-08-19T02:22:48;1383.67;;;999.90;;
3718;SDS011;1875;52.492;6.860;2022-08-19T02:25:17;1652.83;;;999.90;;
3718;SDS011;1875;52.492;6.860;2022-08-19T02:27:45;1293.43;;;924.47;;
3718;SDS011;1875;52.492;6.860;2022-08-19T02:30:15;1581.43;;;796.00;;
3718;SDS011;1875;52.492;6.860;2022-08-19T02:32:43;1292.13;;;493.57;;
3718;SDS011;1875;52.492;6.860;2022-08-19T02:35:12;1329.40;;;478.43;;
3718;SDS011;1875;52.492;6.860;2022-08-19T02:37:40;1330.90;;;997.77;;
3718;SDS011;1875;52.492;6.860;2022-08-19T02:40:27;1245.47;;;999.90;;
3718;SDS011;1875;52.492;6.860;2022-08-19T02:42:55;1403.77;;;937.13;;
3718;SDS011;1875;52.492;6.860;2022-08-19T02:45:23;1291.07;;;473.60;;
3718;SDS011;1875;52.492;6.860;2022-08-19T02:47:50;1235.07;;;974.70;;
3718;SDS011;1875;52.492;6.860;2022-08-19T02:50:18;1263.27;;;794.30;;
3718;SDS011;1875;52.492;6.860;2022-08-19T02:52:46;1320.13;;;995.97;;
3718;SDS011;1875;52.492;6.860;2022-08-19T02:55:14;1226.80;;;979.07;;
3718;SDS011;1875;52.492;6.860;2022-08-19T02:57:43;1265.67;;;882.20;;
3718;SDS011;1875;52.492;6.860;2022-08-19T03:00:11;1390.00;;;975.80;;
3718;SDS011;1875;52.492;6.860;2022-08-19T03:02:39;1385.27;;;999.90;;
3718;SDS011;1875;52.492;6.860;2022-08-19T03:05:08;1200.87;;;886.30;;
3718;SDS011;1875;52.492;6.860;2022-08-19T03:07:36;1287.47;;;999.90;;
3718;SDS011;1875;52.492;6.860;2022-08-19T03:10:04;1215.93;;;999.13;;
3718;SDS011;1875;52.492;6.860;2022-08-19T03:12:34;1399.23;;;999.90;;
3718;SDS011;1875;52.492;6.860;2022-08-19T03:15:04;1277.33;;;999.90;;
3718;SDS011;1875;52.492;6.860;2022-08-19T03:17:33;1034.90;;;938.37;;
3718;SDS011;1875;52.492;6.860;2022-08-19T03:20:01;996.57;;;901.07;;
3718;SDS011;1875;52.492;6.860;2022-08-19T03:22:29;1044.87;;;945.33;;
3718;SDS011;1875;52.492;6.860;2022-08-19T03:24:57;1036.00;;;932.00;;
3718;SDS011;1875;52.492;6.860;2022-08-19T03:27:25;1051.13;;;941.77;;
3718;SDS011;1875;52.492;6.860;2022-08-19T03:29:59;1081.60;;;967.13;;
3718;SDS011;1875;52.492;6.860;2022-08-19T03:32:29;1129.50;;;994.27;;
3718;SDS011;1875;52.492;6.860;2022-08-19T03:34:58;1202.53;;;992.73;;
3718;SDS011;1875;52.492;6.860;2022-08-19T03:37:26;1178.30;;;993.93;;
3718;SDS011;1875;52.492;6.860;2022-08-19T03:39:54;1151.87;;;926.13;;
3718;SDS011;1875;52.492;6.860;2022-08-19T03:42:22;1186.60;;;999.90;;
3718;SDS011;1875;52.492;6.860;2022-08-19T03:45:09;1183.07;;;999.90;;
3718;SDS011;1875;52.492;6.860;2022-08-19T03:47:38;1165.93;;;999.90;;
3718;SDS011;1875;52.492;6.860;2022-08-19T03:50:06;1163.70;;;999.90;;
3718;SDS011;1875;52.492;6.860;2022-08-19T03:52:35;1110.13;;;987.33;;
3718;SDS011;1875;52.492;6.860;2022-08-19T03:55:03;1138.37;;;782.73;;
3718;SDS011;1875;52.492;6.860;2022-08-19T03:57:32;1112.83;;;972.17;;
3718;SDS011;1875;52.492;6.860;2022-08-19T04:00:00;1226.97;;;999.90;;
3718;SDS011;1875;52.492;6.860;2022-08-19T04:02:40;1175.23;;;999.90;;
3718;SDS011;1875;52.492;6.860;2022-08-19T04:05:26;1164.83;;;999.90;;
3718;SDS011;1875;52.492;6.860;2022-08-19T04:07:54;1163.37;;;999.90;;
3718;SDS011;1875;52.492;6.860;2022-08-19T04:10:24;1189.00;;;991.13;;
3718;SDS011;1875;52.492;6.860;2022-08-19T04:12:52;1037.13;;;843.43;;
3718;SDS011;1875;52.492;6.860;2022-08-19T04:15:20;1183.97;;;999.90;;
3718;SDS011;1875;52.492;6.860;2022-08-19T04:17:49;1146.37;;;999.90;;
3718;SDS011;1875;52.492;6.860;2022-08-19T04:20:16;1152.07;;;999.90;;
3718;SDS011;1875;52.492;6.860;2022-08-19T04:22:44;139.63;;;46.70;;
3718;SDS011;1875;52.492;6.860;2022-08-19T04:25:12;136.60;;;45.73;;
3718;SDS011;1875;52.492;6.860;2022-08-19T04:27:40;140.37;;;45.60;;
3718;SDS011;1875;52.492;6.860;2022-08-19T04:30:09;142.57;;;45.80;;
3718;SDS011;1875;52.492;6.860;2022-08-19T04:32:38;139.73;;;44.97;;
3718;SDS011;1875;52.492;6.860;2022-08-19T04:35:07;140.93;;;45.30;;
3718;SDS011;1875;52.492;6.860;2022-08-19T04:37:43;146.73;;;48.87;;
3718;SDS011;1875;52.492;6.860;2022-08-19T04:40:11;995.30;;;899.07;;
3718;SDS011;1875;52.492;6.860;2022-08-19T04:42:56;985.63;;;894.60;;
3718;SDS011;1875;52.492;6.860;2022-08-19T04:45:24;974.37;;;880.07;;
3718;SDS011;1875;52.492;6.860;2022-08-19T04:47:54;1002.97;;;904.27;;
3718;SDS011;1875;52.492;6.860;2022-08-19T04:50:44;1104.00;;;986.10;;
3718;SDS011;1875;52.492;6.860;2022-08-19T04:53:12;1096.97;;;986.43;;
3718;SDS011;1875;52.492;6.860;2022-08-19T04:55:40;1047.37;;;938.80;;
3718;SDS011;1875;52.492;6.860;2022-08-19T04:58:08;1078.80;;;952.73;;
3718;SDS011;1875;52.492;6.860;2022-08-19T05:00:37;1057.73;;;949.60;;
3718;SDS011;1875;52.492;6.860;2022-08-19T05:03:05;1072.87;;;957.77;;
3718;SDS011;1875;52.492;6.860;2022-08-19T05:05:33;1079.83;;;962.27;;
3718;SDS011;1875;52.492;6.860;2022-08-19T05:08:12;1080.70;;;962.83;;
3718;SDS011;1875;52.492;6.860;2022-08-19T05:10:56;1080.43;;;969.57;;
3718;SDS011;1875;52.492;6.860;2022-08-19T05:13:23;1066.50;;;949.53;;
3718;SDS011;1875;52.492;6.860;2022-08-19T05:15:55;1139.37;;;999.90;;
3718;SDS011;1875;52.492;6.860;2022-08-19T05:18:24;1099.87;;;979.63;;
3718;SDS011;1875;52.492;6.860;2022-08-19T05:21:11;1135.40;;;999.90;;
3718;SDS011;1875;52.492;6.860;2022-08-19T05:23:59;1106.17;;;991.03;;
3718;SDS011;1875;52.492;6.860;2022-08-19T05:26:28;1108.47;;;978.60;;
3718;SDS011;1875;52.492;6.860;2022-08-19T05:28:55;1114.73;;;994.83;;
3718;SDS011;1875;52.492;6.860;2022-08-19T05:31:23;1118.27;;;999.90;;
3718;SDS011;1875;52.492;6.860;2022-08-19T05:33:51;1101.93;;;983.67;;
3718;SDS011;1875;52.492;6.860;2022-08-19T05:36:19;1122.17;;;997.80;;
3718;SDS011;1875;52.492;6.860;2022-08-19T05:38:46;1123.77;;;998.47;;
3718;SDS011;1875;52.492;6.860;2022-08-19T05:41:17;1114.60;;;991.83;;
3718;SDS011;1875;52.492;6.860;2022-08-19T05:43:45;1136.33;;;999.90;;
3718;SDS011;1875;52.492;6.860;2022-08-19T05:46:15;1136.40;;;999.90;;
3718;SDS011;1875;52.492;6.860;2022-08-19T05:48:52;972.20;;;656.30;;
3718;SDS011;1875;52.492;6.860;2022-08-19T05:51:22;1144.03;;;999.90;;
3718;SDS011;1875;52.492;6.860;2022-08-19T05:53:54;1114.33;;;995.03;;
3718;SDS011;1875;52.492;6.860;2022-08-19T05:56:23;1133.13;;;999.90;;
3718;SDS011;1875;52.492;6.860;2022-08-19T05:58:51;1136.80;;;999.90;;
3718;SDS011;1875;52.492;6.860;2022-08-19T06:01:20;2266.67;;;999.90;;
3718;SDS011;1875;52.492;6.860;2022-08-19T06:03:48;1135.50;;;999.90;;
3718;SDS011;1875;52.492;6.860;2022-08-19T06:06:15;1117.77;;;997.87;;
3718;SDS011;1875;52.492;6.860;2022-08-19T06:08:43;1092.77;;;976.67;;
3718;SDS011;1875;52.492;6.860;2022-08-19T06:11:18;1067.07;;;960.47;;
3718;SDS011;1875;52.492;6.860;2022-08-19T06:13:49;1034.03;;;924.77;;
3718;SDS011;1875;52.492;6.860;2022-08-19T06:16:25;1049.77;;;945.50;;
3718;SDS011;1875;52.492;6.860;2022-08-19T06:18:53;1022.37;;;915.87;;
3718;SDS011;1875;52.492;6.860;2022-08-19T06:21:24;1084.13;;;974.80;;
3718;SDS011;1875;52.492;6.860;2022-08-19T06:23:54;1105.33;;;995.03;;
3718;SDS011;1875;52.492;6.860;2022-08-19T06:26:22;1103.20;;;991.93;;
3718;SDS011;1875;52.492;6.860;2022-08-19T06:28:52;1160.43;;;996.27;;
3718;SDS011;1875;52.492;6.860;2022-08-19T06:31:20;1103.70;;;992.27;;
3718;SDS011;1875;52.492;6.860;2022-08-19T06:33:49;1098.37;;;988.13;;
3718;SDS011;1875;52.492;6.860;2022-08-19T06:36:18;1113.53;;;998.17;;
3718;SDS011;1875;52.492;6.860;2022-08-19T06:38:51;1119.50;;;998.73;;
3718;SDS011;1875;52.492;6.860;2022-08-19T06:41:18;1008.77;;;906.73;;
3718;SDS011;1875;52.492;6.860;2022-08-19T06:43:46;1022.57;;;910.17;;
3718;SDS011;1875;52.492;6.860;2022-08-19T06:46:20;1116.80;;;998.60;;
3718;SDS011;1875;52.492;6.860;2022-08-19T06:48:49;1001.53;;;899.30;;
3718;SDS011;1875;52.492;6.860;2022-08-19T06:51:19;1007.93;;;904.03;;
3718;SDS011;1875;52.492;6.860;2022-08-19T06:53:48;1031.77;;;926.73;;
3718;SDS011;1875;52.492;6.860;2022-08-19T06:56:22;1034.60;;;934.23;;
3718;SDS011;1875;52.492;6.860;2022-08-19T06:58:51;1035.03;;;923.37;;
3718;SDS011;1875;52.492;6.860;2022-08-19T07:01:20;1154.73;;;999.90;;
3718;SDS011;1875;52.492;6.860;2022-08-19T07:03:48;1068.50;;;953.97;;
3718;SDS011;1875;52.492;6.860;2022-08-19T07:06:16;1094.03;;;975.33;;
3718;SDS011;1875;52.492;6.860;2022-08-19T07:09:06;1078.10;;;968.57;;
3718;SDS011;1875;52.492;6.860;2022-08-19T07:11:34;1079.37;;;976.67;;
3718;SDS011;1875;52.492;6.860;2022-08-19T07:14:02;1096.53;;;983.47;;
3718;SDS011;1875;52.492;6.860;2022-08-19T07:16:46;1099.50;;;981.63;;
3718;SDS011;1875;52.492;6.860;2022-08-19T07:19:14;1096.73;;;986.50;;
3718;SDS011;1875;52.492;6.860;2022-08-19T07:21:44;1109.97;;;990.40;;
3718;SDS011;1875;52.492;6.860;2022-08-19T07:24:12;1105.23;;;991.97;;
3718;SDS011;1875;52.492;6.860;2022-08-19T07:26:42;1090.47;;;986.03;;
3718;SDS011;1875;52.492;6.860;2022-08-19T07:29:10;1102.70;;;985.37;;
3718;SDS011;1875;52.492;6.860;2022-08-19T07:31:38;1101.17;;;985.60;;
3718;SDS011;1875;52.492;6.860;2022-08-19T07:34:12;1105.70;;;991.13;;
3718;SDS011;1875;52.492;6.860;2022-08-19T07:36:42;1106.47;;;986.27;;
3718;SDS011;1875;52.492;6.860;2022-08-19T07:39:11;1106.20;;;994.03;;
3718;SDS011;1875;52.492;6.860;2022-08-19T07:41:40;1097.97;;;988.97;;
3718;SDS011;1875;52.492;6.860;2022-08-19T07:44:08;1107.17;;;993.20;;
3718;SDS011;1875;52.492;6.860;2022-08-19T07:46:37;1115.40;;;999.90;;
3718;SDS011;1875;52.492;6.860;2022-08-19T07:49:06;1102.67;;;995.57;;
3718;SDS011;1875;52.492;6.860;2022-08-19T07:51:40;1174.33;;;991.87;;
3718;SDS011;1875;52.492;6.860;2022-08-19T07:54:08;1104.43;;;995.87;;
3718;SDS011;1875;52.492;6.860;2022-08-19T07:56:36;1105.57;;;994.47;;
3718;SDS011;1875;52.492;6.860;2022-08-19T07:59:03;1095.87;;;984.30;;
3718;SDS011;1875;52.492;6.860;2022-08-19T08:01:31;1112.83;;;994.93;;
3718;SDS011;1875;52.492;6.860;2022-08-19T08:04:07;1104.13;;;991.13;;
3718;SDS011;1875;52.492;6.860;2022-08-19T08:06:53;1101.03;;;990.53;;
3718;SDS011;1875;52.492;6.860;2022-08-19T08:09:40;1087.13;;;976.63;;
3718;SDS011;1875;52.492;6.860;2022-08-19T08:12:15;1096.63;;;989.43;;
3718;SDS011;1875;52.492;6.860;2022-08-19T08:15:00;1102.93;;;991.47;;
3718;SDS011;1875;52.492;6.860;2022-08-19T08:17:33;1103.07;;;992.07;;
3718;SDS011;1875;52.492;6.860;2022-08-19T08:20:15;1116.17;;;984.70;;
3718;SDS011;1875;52.492;6.860;2022-08-19T08:22:45;1090.90;;;978.10;;
3718;SDS011;1875;52.492;6.860;2022-08-19T08:25:31;1085.90;;;974.13;;
3718;SDS011;1875;52.492;6.860;2022-08-19T08:28:00;1087.67;;;972.67;;
3718;SDS011;1875;52.492;6.860;2022-08-19T08:30:28;1092.23;;;981.43;;
3718;SDS011;1875;52.492;6.860;2022-08-19T08:32:59;1086.13;;;982.60;;
3718;SDS011;1875;52.492;6.860;2022-08-19T08:35:28;1093.37;;;982.17;;
3718;SDS011;1875;52.492;6.860;2022-08-19T08:37:57;1109.83;;;987.07;;
3718;SDS011;1875;52.492;6.860;2022-08-19T08:40:26;1125.17;;;982.60;;
3718;SDS011;1875;52.492;6.860;2022-08-19T08:42:57;1106.03;;;983.33;;
3718;SDS011;1875;52.492;6.860;2022-08-19T08:45:33;1111.67;;;987.77;;
3718;SDS011;1875;52.492;6.860;2022-08-19T08:48:10;1118.97;;;995.00;;
3718;SDS011;1875;52.492;6.860;2022-08-19T08:50:49;1109.43;;;983.33;;
3718;SDS011;1875;52.492;6.860;2022-08-19T08:53:20;1120.43;;;989.70;;
3718;SDS011;1875;52.492;6.860;2022-08-19T08:55:55;1126.37;;;992.17;;
3718;SDS011;1875;52.492;6.860;2022-08-19T08:58:24;1099.47;;;987.97;;
3718;SDS011;1875;52.492;6.860;2022-08-19T09:00:55;1105.83;;;987.37;;
3718;SDS011;1875;52.492;6.860;2022-08-19T09:03:24;1147.60;;;994.30;;
3718;SDS011;1875;52.492;6.860;2022-08-19T09:05:58;1100.60;;;984.67;;
3718;SDS011;1875;52.492;6.860;2022-08-19T09:08:39;1178.30;;;999.90;;
3718;SDS011;1875;52.492;6.860;2022-08-19T09:11:11;1166.13;;;999.90;;
3718;SDS011;1875;52.492;6.860;2022-08-19T09:14:06;1226.53;;;999.90;;
3718;SDS011;1875;52.492;6.860;2022-08-19T09:16:56;1168.33;;;999.90;;
3718;SDS011;1875;52.492;6.860;2022-08-19T09:19:25;964.50;;;774.47;;
3718;SDS011;1875;52.492;6.860;2022-08-19T09:21:54;675.10;;;290.03;;
3718;SDS011;1875;52.492;6.860;2022-08-19T09:24:23;1091.30;;;783.87;;
3718;SDS011;1875;52.492;6.860;2022-08-19T09:26:56;593.60;;;132.37;;
3718;SDS011;1875;52.492;6.860;2022-08-19T09:29:24;1257.93;;;994.10;;
3718;SDS011;1875;52.492;6.860;2022-08-19T09:31:51;596.30;;;138.80;;
3718;SDS011;1875;52.492;6.860;2022-08-19T09:34:19;1064.27;;;787.77;;
3718;SDS011;1875;52.492;6.860;2022-08-19T09:36:47;602.83;;;142.23;;
3718;SDS011;1875;52.492;6.860;2022-08-19T09:39:21;591.30;;;135.47;;
3718;SDS011;1875;52.492;6.860;2022-08-19T09:41:50;1086.03;;;791.30;;
3718;SDS011;1875;52.492;6.860;2022-08-19T09:44:19;714.53;;;253.70;;
3718;SDS011;1875;52.492;6.860;2022-08-19T09:46:47;705.73;;;236.77;;
3718;SDS011;1875;52.492;6.860;2022-08-19T09:49:15;701.63;;;238.67;;
3718;SDS011;1875;52.492;6.860;2022-08-19T09:51:44;720.77;;;303.27;;
3718;SDS011;1875;52.492;6.860;2022-08-19T09:54:16;1142.37;;;995.03;;
3718;SDS011;1875;52.492;6.860;2022-08-19T09:56:51;1199.43;;;974.37;;
3718;SDS011;1875;52.492;6.860;2022-08-19T09:59:19;1234.17;;;989.17;;
3718;SDS011;1875;52.492;6.860;2022-08-19T10:01:47;1222.40;;;985.93;;
3718;SDS011;1875;52.492;6.860;2022-08-19T10:04:15;1113.00;;;983.47;;
3718;SDS011;1875;52.492;6.860;2022-08-19T10:06:45;1123.27;;;982.53;;
3718;SDS011;1875;52.492;6.860;2022-08-19T10:09:19;1128.77;;;985.27;;
3718;SDS011;1875;52.492;6.860;2022-08-19T10:12:01;1137.07;;;986.23;;
3718;SDS011;1875;52.492;6.860;2022-08-19T10:14:31;1112.30;;;986.27;;
3718;SDS011;1875;52.492;6.860;2022-08-19T10:16:59;1086.77;;;971.77;;
3718;SDS011;1875;52.492;6.860;2022-08-19T10:19:44;1252.40;;;988.57;;
3718;SDS011;1875;52.492;6.860;2022-08-19T10:22:21;1116.20;;;992.00;;
3718;SDS011;1875;52.492;6.860;2022-08-19T10:24:51;1089.20;;;972.70;;
3718;SDS011;1875;52.492;6.860;2022-08-19T10:27:20;1125.17;;;960.10;;
3718;SDS011;1875;52.492;6.860;2022-08-19T10:29:48;1194.07;;;986.90;;
3718;SDS011;1875;52.492;6.860;2022-08-19T10:32:15;1114.43;;;985.80;;
3718;SDS011;1875;52.492;6.860;2022-08-19T10:34:43;1289.93;;;993.47;;
3718;SDS011;1875;52.492;6.860;2022-08-19T10:37:14;1121.83;;;994.43;;
3718;SDS011;1875;52.492;6.860;2022-08-19T10:39:54;1124.17;;;987.50;;
3718;SDS011;1875;52.492;6.860;2022-08-19T10:42:23;1114.50;;;985.73;;
3718;SDS011;1875;52.492;6.860;2022-08-19T10:44:50;1168.77;;;990.17;;
3718;SDS011;1875;52.492;6.860;2022-08-19T10:47:18;1119.60;;;993.73;;
3718;SDS011;1875;52.492;6.860;2022-08-19T10:49:51;1209.50;;;989.63;;
3718;SDS011;1875;52.492;6.860;2022-08-19T10:52:37;1161.40;;;972.33;;
3718;SDS011;1875;52.492;6.860;2022-08-19T10:55:16;1095.17;;;977.67;;
3718;SDS011;1875;52.492;6.860;2022-08-19T10:58:04;1176.97;;;969.23;;
3718;SDS011;1875;52.492;6.860;2022-08-19T11:00:37;1141.77;;;976.43;;
3718;SDS011;1875;52.492;6.860;2022-08-19T11:03:05;1319.30;;;974.17;;
3718;SDS011;1875;52.492;6.860;2022-08-19T11:05:34;1102.50;;;954.37;;
3718;SDS011;1875;52.492;6.860;2022-08-19T11:08:05;1185.37;;;964.63;;
3718;SDS011;1875;52.492;6.860;2022-08-19T11:10:47;1100.87;;;957.47;;
3718;SDS011;1875;52.492;6.860;2022-08-19T11:13:17;1177.50;;;963.87;;
3718;SDS011;1875;52.492;6.860;2022-08-19T11:15:44;1163.33;;;968.33;;
3718;SDS011;1875;52.492;6.860;2022-08-19T11:18:13;1100.77;;;967.53;;
3718;SDS011;1875;52.492;6.860;2022-08-19T11:20:43;1170.87;;;969.63;;
3718;SDS011;1875;52.492;6.860;2022-08-19T11:23:10;1082.87;;;967.53;;
3718;SDS011;1875;52.492;6.860;2022-08-19T11:25:38;1189.07;;;968.13;;
3718;SDS011;1875;52.492;6.860;2022-08-19T11:28:05;1160.33;;;967.27;;
3718;SDS011;1875;52.492;6.860;2022-08-19T11:30:34;1147.17;;;964.27;;
3718;SDS011;1875;52.492;6.860;2022-08-19T11:33:04;1066.67;;;942.50;;
3718;SDS011;1875;52.492;6.860;2022-08-19T11:35:32;1056.67;;;941.50;;
3718;SDS011;1875;52.492;6.860;2022-08-19T11:37:59;1167.97;;;942.23;;
3718;SDS011;1875;52.492;6.860;2022-08-19T11:40:33;1036.40;;;929.67;;
3718;SDS011;1875;52.492;6.860;2022-08-19T11:43:01;1218.27;;;944.70;;
3718;SDS011;1875;52.492;6.860;2022-08-19T11:45:28;1067.90;;;944.83;;
3718;SDS011;1875;52.492;6.860;2022-08-19T11:47:57;1065.83;;;951.73;;
3718;SDS011;1875;52.492;6.860;2022-08-19T11:50:25;1080.03;;;948.13;;
3718;SDS011;1875;52.492;6.860;2022-08-19T11:55:08;1064.90;;;949.07;;
3718;SDS011;1875;52.492;6.860;2022-08-19T11:57:36;1070.27;;;953.07;;
3718;SDS011;1875;52.492;6.860;2022-08-19T12:00:04;1094.40;;;967.57;;
3718;SDS011;1875;52.492;6.860;2022-08-19T12:02:33;1082.80;;;963.43;;
3718;SDS011;1875;52.492;6.860;2022-08-19T12:05:01;1120.03;;;956.53;;
3718;SDS011;1875;52.492;6.860;2022-08-19T12:07:33;1081.17;;;960.90;;
3718;SDS011;1875;52.492;6.860;2022-08-19T12:10:00;1118.53;;;964.73;;
3718;SDS011;1875;52.492;6.860;2022-08-19T12:12:30;1141.13;;;972.63;;
3718;SDS011;1875;52.492;6.860;2022-08-19T12:14:57;1118.73;;;962.57;;
3718;SDS011;1875;52.492;6.860;2022-08-19T12:17:25;1101.10;;;976.17;;
3718;SDS011;1875;52.492;6.860;2022-08-19T12:19:54;1190.23;;;970.43;;
3718;SDS011;1875;52.492;6.860;2022-08-19T12:22:21;1181.83;;;980.53;;
3718;SDS011;1875;52.492;6.860;2022-08-19T12:24:49;1131.20;;;980.57;;
3718;SDS011;1875;52.492;6.860;2022-08-19T12:27:19;1191.40;;;982.13;;
3718;SDS011;1875;52.492;6.860;2022-08-19T12:30:09;1208.23;;;977.57;;
3718;SDS011;1875;52.492;6.860;2022-08-19T12:32:39;1272.13;;;987.27;;
3718;SDS011;1875;52.492;6.860;2022-08-19T12:35:08;1122.57;;;984.37;;
3718;SDS011;1875;52.492;6.860;2022-08-19T12:37:37;1363.50;;;988.47;;
3718;SDS011;1875;52.492;6.860;2022-08-19T12:40:08;2266.67;;;999.90;;
3718;SDS011;1875;52.492;6.860;2022-08-19T12:42:37;1150.30;;;989.20;;
3718;SDS011;1875;52.492;6.860;2022-08-19T12:45:10;1143.33;;;984.13;;
3718;SDS011;1875;52.492;6.860;2022-08-19T12:47:39;1104.07;;;985.07;;
3718;SDS011;1875;52.492;6.860;2022-08-19T12:50:11;1213.70;;;997.63;;
3718;SDS011;1875;52.492;6.860;2022-08-19T12:52:38;1139.07;;;996.53;;
3718;SDS011;1875;52.492;6.860;2022-08-19T12:55:08;1143.00;;;994.00;;
3718;SDS011;1875;52.492;6.860;2022-08-19T12:57:36;1183.20;;;999.00;;
3718;SDS011;1875;52.492;6.860;2022-08-19T13:00:05;1115.13;;;992.70;;
3718;SDS011;1875;52.492;6.860;2022-08-19T13:02:38;1161.37;;;997.27;;
3718;SDS011;1875;52.492;6.860;2022-08-19T13:05:07;1119.37;;;996.07;;
3718;SDS011;1875;52.492;6.860;2022-08-19T13:07:37;1377.43;;;984.70;;
3718;SDS011;1875;52.492;6.860;2022-08-19T13:10:06;1219.57;;;976.03;;
3718;SDS011;1875;52.492;6.860;2022-08-19T13:12:35;1170.57;;;987.17;;
3718;SDS011;1875;52.492;6.860;2022-08-19T13:15:03;1093.93;;;977.90;;
3718;SDS011;1875;52.492;6.860;2022-08-19T13:17:38;1407.40;;;999.90;;
3718;SDS011;1875;52.492;6.860;2022-08-19T13:20:07;1168.93;;;985.93;;
3718;SDS011;1875;52.492;6.860;2022-08-19T13:22:36;1199.00;;;985.70;;
3718;SDS011;1875;52.492;6.860;2022-08-19T13:25:05;1101.23;;;980.97;;
3718;SDS011;1875;52.492;6.860;2022-08-19T13:27:34;1160.43;;;976.23;;
3718;SDS011;1875;52.492;6.860;2022-08-19T13:30:03;749.33;;;279.13;;
3718;SDS011;1875;52.492;6.860;2022-08-19T13:32:50;1095.07;;;810.17;;
3718;SDS011;1875;52.492;6.860;2022-08-19T13:35:35;723.63;;;279.57;;
3718;SDS011;1875;52.492;6.860;2022-08-19T13:38:03;714.07;;;256.13;;
3718;SDS011;1875;52.492;6.860;2022-08-19T13:40:37;603.90;;;151.77;;
3718;SDS011;1875;52.492;6.860;2022-08-19T13:43:06;1055.33;;;940.07;;
3718;SDS011;1875;52.492;6.860;2022-08-19T13:45:48;735.60;;;275.07;;
3718;SDS011;1875;52.492;6.860;2022-08-19T13:48:20;1253.07;;;999.90;;
3718;SDS011;1875;52.492;6.860;2022-08-19T13:50:47;624.10;;;154.50;;
3718;SDS011;1875;52.492;6.860;2022-08-19T13:53:15;738.50;;;298.93;;
3718;SDS011;1875;52.492;6.860;2022-08-19T13:55:43;635.90;;;151.30;;
3718;SDS011;1875;52.492;6.860;2022-08-19T13:58:11;638.73;;;162.10;;
3718;SDS011;1875;52.492;6.860;2022-08-19T14:00:41;625.23;;;153.13;;
3718;SDS011;1875;52.492;6.860;2022-08-19T14:03:09;635.43;;;162.43;;
3718;SDS011;1875;52.492;6.860;2022-08-19T14:05:38;741.03;;;282.00;;
3718;SDS011;1875;52.492;6.860;2022-08-19T14:08:06;627.50;;;157.67;;
3718;SDS011;1875;52.492;6.860;2022-08-19T14:10:35;625.87;;;156.63;;
3718;SDS011;1875;52.492;6.860;2022-08-19T14:13:03;1233.90;;;999.90;;
3718;SDS011;1875;52.492;6.860;2022-08-19T14:15:31;1088.63;;;976.87;;
3718;SDS011;1875;52.492;6.860;2022-08-19T14:17:58;1105.00;;;985.30;;
3718;SDS011;1875;52.492;6.860;2022-08-19T14:20:27;1106.40;;;991.43;;
3718;SDS011;1875;52.492;6.860;2022-08-19T14:22:56;1198.93;;;997.47;;
3718;SDS011;1875;52.492;6.860;2022-08-19T14:25:24;1158.63;;;984.47;;
3718;SDS011;1875;52.492;6.860;2022-08-19T14:27:53;1089.07;;;967.13;;
3718;SDS011;1875;52.492;6.860;2022-08-19T14:30:22;1108.13;;;989.37;;
3718;SDS011;1875;52.492;6.860;2022-08-19T14:32:52;1136.67;;;988.07;;